createdAt,value
2023-04-09T00:02:11.398Z,7.28
2023-04-09T00:04:39.741Z,7.40
2023-04-09T00:07:08.122Z,7.42
2023-04-09T00:09:36.742Z,7.28
2023-04-09T00:12:05.366Z,7.33
2023-04-09T00:14:35.044Z,7.36
2023-04-09T00:17:03.375Z,7.31
2023-04-09T00:19:31.646Z,7.30
2023-04-09T00:22:00.007Z,7.30
2023-04-09T00:24:28.384Z,7.22
2023-04-09T00:26:56.898Z,7.27
2023-04-09T00:29:25.365Z,7.24
2023-04-09T00:31:55.254Z,7.33
2023-04-09T00:34:23.673Z,7.33
2023-04-09T00:36:52.023Z,7.25
2023-04-09T00:39:20.455Z,7.19
2023-04-09T00:41:49.302Z,7.21
2023-04-09T00:44:17.652Z,7.25
2023-04-09T00:46:46.159Z,7.27
2023-04-09T00:49:16.179Z,7.14
2023-04-09T00:51:47.136Z,7.17
2023-04-09T00:54:16.144Z,7.16
2023-04-09T00:56:45.287Z,6.98
2023-04-09T00:59:13.667Z,7.09
2023-04-09T01:01:42.094Z,7.04
2023-04-09T01:04:10.896Z,7.18
2023-04-09T01:06:49.507Z,7.19
2023-04-09T01:09:26.105Z,7.04
2023-04-09T01:12:06.545Z,6.64
2023-04-09T01:14:41.860Z,7.16
2023-04-09T01:17:20.475Z,7.19
2023-04-09T01:20:00.298Z,7.19
2023-04-09T01:22:48.576Z,7.11
2023-04-09T01:25:32.167Z,7.15
2023-04-09T01:28:19.924Z,7.10
2023-04-09T01:30:51.524Z,7.00
2023-04-09T01:33:21.705Z,6.98
2023-04-09T01:35:51.534Z,6.92
2023-04-09T01:38:22.204Z,6.91
2023-04-09T01:40:51.860Z,6.91
2023-04-09T01:43:22.468Z,6.95
2023-04-09T01:45:52.006Z,6.72
2023-04-09T01:48:21.008Z,6.93
2023-04-09T01:50:50.939Z,6.77
2023-04-09T01:53:19.631Z,6.58
2023-04-09T01:55:48.050Z,6.71
2023-04-09T01:58:16.633Z,6.71
2023-04-09T02:00:49.966Z,6.71
2023-04-09T02:03:23.734Z,6.69
2023-04-09T02:06:09.223Z,6.62
2023-04-09T02:08:39.080Z,6.68
2023-04-09T02:11:11.368Z,6.65
2023-04-09T02:13:42.732Z,6.59
2023-04-09T02:16:14.783Z,6.62
2023-04-09T02:18:43.784Z,6.62
2023-04-09T02:21:13.768Z,6.44
2023-04-09T02:23:42.355Z,6.59
2023-04-09T02:26:10.823Z,6.52
2023-04-09T02:28:39.255Z,6.56
2023-04-09T02:31:07.738Z,6.53
2023-04-09T02:33:37.480Z,6.51
2023-04-09T02:36:06.819Z,6.57
2023-04-09T02:38:35.727Z,6.17
2023-04-09T02:41:04.209Z,6.53
2023-04-09T02:43:32.591Z,6.43
2023-04-09T02:46:01.043Z,6.50
2023-04-09T02:48:29.424Z,6.47
2023-04-09T02:50:59.804Z,6.46
2023-04-09T02:53:28.260Z,6.40
2023-04-09T02:55:56.620Z,6.37
2023-04-09T02:58:24.979Z,6.31
2023-04-09T03:00:53.388Z,6.39
2023-04-09T03:03:21.976Z,6.28
2023-04-09T03:05:50.486Z,6.28
2023-04-09T03:08:20.507Z,6.26
2023-04-09T03:10:49.009Z,6.31
2023-04-09T03:13:17.451Z,6.28
2023-04-09T03:15:45.959Z,7.49
2023-04-09T03:18:14.385Z,7.59
2023-04-09T03:20:43.936Z,7.65
2023-04-09T03:23:14.446Z,7.91
2023-04-09T03:25:48.680Z,7.92
2023-04-09T03:28:18.859Z,7.98
2023-04-09T03:30:53.972Z,7.60
2023-04-09T03:33:23.682Z,7.87
2023-04-09T03:35:55.765Z,7.84
2023-04-09T03:38:47.153Z,8.01
2023-04-09T03:41:28.359Z,7.59
2023-04-09T03:43:59.108Z,7.73
2023-04-09T03:46:32.601Z,7.25
2023-04-09T03:49:02.524Z,6.85
2023-04-09T03:51:44.574Z,6.57
2023-04-09T03:54:13.703Z,5.95
2023-04-09T03:56:44.372Z,6.19
2023-04-09T03:59:15.144Z,6.32
2023-04-09T04:01:47.189Z,6.30
2023-04-09T04:04:16.437Z,6.22
2023-04-09T04:06:49.240Z,6.11
2023-04-09T04:09:46.726Z,6.02
2023-04-09T04:12:19.813Z,5.99
2023-04-09T04:15:09.981Z,5.86
2023-04-09T04:17:43.987Z,5.99
2023-04-09T04:20:24.348Z,5.97
2023-04-09T04:23:02.172Z,5.99
2023-04-09T04:25:31.394Z,6.00
2023-04-09T04:28:01.219Z,5.82
2023-04-09T04:30:38.243Z,6.02
2023-04-09T04:33:09.797Z,5.96
2023-04-09T04:35:52.499Z,5.96
2023-04-09T04:38:50.290Z,5.92
2023-04-09T04:41:33.160Z,6.00
2023-04-09T04:44:29.073Z,5.97
2023-04-09T04:47:06.709Z,5.93
2023-04-09T04:49:35.661Z,5.92
2023-04-09T04:52:07.534Z,5.93
2023-04-09T04:54:36.527Z,5.87
2023-04-09T04:57:05.110Z,5.88
2023-04-09T04:59:42.016Z,5.64
2023-04-09T05:02:15.866Z,5.91
2023-04-09T05:05:15.472Z,5.79
2023-04-09T05:07:50.467Z,5.72
2023-04-09T05:10:19.058Z,5.93
2023-04-09T05:12:47.995Z,5.80
2023-04-09T05:15:25.604Z,5.94
2023-04-09T05:17:54.327Z,5.85
2023-04-09T05:20:23.286Z,6.02
2023-04-09T05:23:04.478Z,5.87
2023-04-09T05:25:38.122Z,6.05
2023-04-09T05:28:07.795Z,6.00
2023-04-09T05:30:38.775Z,6.04
2023-04-09T05:33:07.455Z,6.12
2023-04-09T05:35:40.275Z,6.14
2023-04-09T05:38:08.792Z,6.22
2023-04-09T05:40:37.248Z,6.12
2023-04-09T05:43:11.541Z,6.26
2023-04-09T05:45:44.416Z,6.05
2023-04-09T05:48:12.892Z,6.26
2023-04-09T05:50:54.126Z,6.28
2023-04-09T05:53:25.947Z,6.25
2023-04-09T05:55:54.340Z,6.33
2023-04-09T05:58:27.388Z,6.34
2023-04-09T06:01:00.134Z,6.43
2023-04-09T06:03:28.912Z,6.38
2023-04-09T06:05:57.405Z,6.45
2023-04-09T06:08:25.856Z,6.43
2023-04-09T06:10:54.239Z,6.52
2023-04-09T06:13:22.640Z,6.59
2023-04-09T06:15:51.203Z,6.54
2023-04-09T06:18:20.928Z,6.56
2023-04-09T06:20:49.224Z,6.69
2023-04-09T06:23:19.644Z,6.70
2023-04-09T06:25:47.961Z,6.68
2023-04-09T06:28:16.456Z,6.81
2023-04-09T06:30:45.032Z,6.80
2023-04-09T06:33:13.430Z,6.77
2023-04-09T06:35:43.754Z,6.80
2023-04-09T06:38:12.074Z,6.86
2023-04-09T06:40:40.580Z,6.86
2023-04-09T06:43:09.640Z,6.69
2023-04-09T06:45:44.004Z,7.16
2023-04-09T06:48:12.854Z,7.20
2023-04-09T06:50:42.576Z,7.30
2023-04-09T06:53:10.993Z,7.41
2023-04-09T06:55:39.569Z,7.38
2023-04-09T06:58:07.934Z,7.43
2023-04-09T07:00:36.287Z,7.58
2023-04-09T07:03:05.622Z,7.74
2023-04-09T07:05:34.152Z,7.72
2023-04-09T07:08:04.250Z,7.90
2023-04-09T07:10:32.577Z,7.72
2023-04-09T07:13:01.094Z,7.69
2023-04-09T07:15:29.386Z,7.87
2023-04-09T07:17:57.990Z,7.94
2023-04-09T07:20:26.349Z,7.94
2023-04-09T07:22:54.695Z,8.12
2023-04-09T07:25:24.477Z,8.25
2023-04-09T07:27:53.191Z,8.24
2023-04-09T07:30:22.109Z,8.25
2023-04-09T07:32:51.024Z,8.38
2023-04-09T07:35:19.662Z,8.51
2023-04-09T07:37:48.017Z,8.49
2023-04-09T07:40:16.525Z,8.42
2023-04-09T07:42:46.263Z,8.56
2023-04-09T07:45:14.611Z,8.59
2023-04-09T07:47:42.960Z,8.68
2023-04-09T07:50:12.403Z,8.70
2023-04-09T07:52:40.889Z,8.74
2023-04-09T07:55:10.084Z,8.79
2023-04-09T07:57:38.529Z,8.87
2023-04-09T08:00:10.518Z,8.92
2023-04-09T08:02:42.516Z,9.04
2023-04-09T08:05:11.618Z,9.14
2023-04-09T08:07:40.092Z,9.30
2023-04-09T08:10:14.962Z,9.37
2023-04-09T08:12:43.496Z,9.44
2023-04-09T08:15:13.513Z,9.65
2023-04-09T08:17:42.037Z,9.66
2023-04-09T08:20:12.311Z,9.50
2023-04-09T08:22:42.270Z,9.55
2023-04-09T08:25:10.701Z,9.84
2023-04-09T08:27:39.862Z,9.97
2023-04-09T08:30:10.234Z,9.81
2023-04-09T08:32:40.090Z,9.92
2023-04-09T08:35:10.335Z,10.34
2023-04-09T08:37:38.698Z,10.13
2023-04-09T08:40:10.042Z,10.03
2023-04-09T08:42:41.315Z,10.07
2023-04-09T08:45:11.758Z,9.57
2023-04-09T08:47:43.361Z,9.92
2023-04-09T08:50:12.186Z,9.81
2023-04-09T08:52:41.728Z,10.20
2023-04-09T08:55:13.204Z,10.42
2023-04-09T08:57:42.051Z,10.34
2023-04-09T09:00:11.502Z,10.45
2023-04-09T09:03:02.986Z,10.71
2023-04-09T09:05:38.854Z,10.87
2023-04-09T09:08:08.816Z,10.79
2023-04-09T09:10:42.280Z,10.99
2023-04-09T09:13:23.215Z,11.68
2023-04-09T09:15:55.115Z,11.41
2023-04-09T09:18:40.494Z,11.30
2023-04-09T09:21:12.951Z,11.38
2023-04-09T09:23:42.434Z,12.22
2023-04-09T09:26:16.382Z,12.58
2023-04-09T09:28:45.468Z,12.86
2023-04-09T09:31:14.808Z,12.76
2023-04-09T09:33:45.154Z,13.10
2023-04-09T09:36:13.711Z,13.23
2023-04-09T09:38:54.878Z,13.29
2023-04-09T09:41:25.052Z,13.60
2023-04-09T09:43:53.704Z,14.32
2023-04-09T09:46:23.337Z,14.20
2023-04-09T09:48:53.509Z,14.25
2023-04-09T09:51:28.827Z,13.81
2023-04-09T09:53:58.489Z,14.09
2023-04-09T09:56:33.594Z,14.62
2023-04-09T09:59:08.900Z,14.63
2023-04-09T10:01:38.513Z,14.60
2023-04-09T10:04:13.603Z,13.37
2023-04-09T10:06:46.196Z,12.89
2023-04-09T10:09:14.923Z,12.93
2023-04-09T10:11:45.630Z,13.01
2023-04-09T10:14:15.103Z,12.67
2023-04-09T10:16:44.112Z,12.58
2023-04-09T10:19:15.261Z,12.47
2023-04-09T10:21:49.665Z,12.58
2023-04-09T10:24:18.618Z,13.23
2023-04-09T10:26:47.098Z,13.54
2023-04-09T10:29:17.162Z,13.15
2023-04-09T10:31:56.147Z,12.90
2023-04-09T10:34:29.365Z,12.64
2023-04-09T10:36:59.778Z,12.73
2023-04-09T10:39:29.956Z,13.08
2023-04-09T10:41:59.448Z,12.51
2023-04-09T10:44:31.868Z,12.49
2023-04-09T10:47:00.419Z,12.44
2023-04-09T10:49:38.100Z,12.27
2023-04-09T10:52:11.935Z,12.03
2023-04-09T10:54:48.295Z,11.79
2023-04-09T10:57:20.770Z,11.86
2023-04-09T10:59:51.599Z,11.55
2023-04-09T11:03:01.785Z,11.42
2023-04-09T11:05:35.240Z,11.63
2023-04-09T11:08:09.403Z,11.80
2023-04-09T11:10:38.674Z,11.67
2023-04-09T11:13:07.243Z,11.70
2023-04-09T11:15:37.822Z,11.80
2023-04-09T11:18:07.031Z,11.84
2023-04-09T11:20:37.399Z,12.23
2023-04-09T11:23:06.412Z,11.90
2023-04-09T11:25:36.173Z,11.79
2023-04-09T11:28:06.122Z,12.11
2023-04-09T11:30:35.734Z,12.28
2023-04-09T11:33:04.436Z,12.38
2023-04-09T11:35:37.691Z,12.13
2023-04-09T11:38:10.413Z,12.17
2023-04-09T11:40:47.818Z,12.51
2023-04-09T11:43:17.045Z,12.62
2023-04-09T11:45:48.922Z,12.99
2023-04-09T11:48:19.202Z,12.65
2023-04-09T11:50:49.259Z,12.68
2023-04-09T11:53:19.693Z,12.38
2023-04-09T11:55:51.525Z,12.80
2023-04-09T11:58:23.800Z,12.83
2023-04-09T12:00:55.621Z,12.60
2023-04-09T12:03:32.426Z,12.61
2023-04-09T12:06:04.275Z,12.54
2023-04-09T12:08:34.661Z,12.53
2023-04-09T12:11:11.440Z,12.58
2023-04-09T12:13:43.456Z,12.65
2023-04-09T12:16:12.859Z,13.18
2023-04-09T12:18:41.690Z,13.25
2023-04-09T12:21:11.525Z,13.16
2023-04-09T12:23:39.957Z,12.68
2023-04-09T12:26:08.442Z,12.76
2023-04-09T12:28:37.026Z,12.84
2023-04-09T12:31:06.018Z,12.77
2023-04-09T12:33:34.543Z,12.50
2023-04-09T12:36:03.010Z,12.69
2023-04-09T12:38:32.858Z,12.57
2023-04-09T12:41:01.387Z,12.37
2023-04-09T12:43:29.804Z,12.45
2023-04-09T12:45:58.255Z,12.52
2023-04-09T12:48:26.835Z,12.42
2023-04-09T12:50:55.233Z,12.27
2023-04-09T12:53:23.728Z,12.30
2023-04-09T12:55:53.451Z,12.62
2023-04-09T12:58:21.814Z,13.02
2023-04-09T13:00:50.120Z,13.43
2023-04-09T13:03:18.689Z,13.57
2023-04-09T13:05:47.316Z,13.99
2023-04-09T13:08:16.260Z,13.99
2023-04-09T13:10:45.146Z,14.13
2023-04-09T13:13:14.969Z,14.24
2023-04-09T13:15:45.013Z,14.45
2023-04-09T13:18:14.511Z,14.64
2023-04-09T13:20:43.023Z,14.42
2023-04-09T13:23:11.677Z,14.16
2023-04-09T13:25:40.062Z,13.69
2023-04-09T13:28:09.134Z,13.73
2023-04-09T13:30:39.064Z,13.83
2023-04-09T13:33:07.494Z,13.98
2023-04-09T13:35:35.927Z,14.02
2023-04-09T13:38:04.268Z,14.24
2023-04-09T13:40:32.729Z,14.27
2023-04-09T13:43:01.136Z,14.32
2023-04-09T13:45:29.619Z,14.07
2023-04-09T13:48:00.682Z,14.10
2023-04-09T13:50:29.144Z,14.15
2023-04-09T13:52:57.461Z,14.02
2023-04-09T13:57:54.165Z,14.47
2023-04-09T14:00:22.585Z,14.11
2023-04-09T14:02:51.183Z,13.86
2023-04-09T14:05:21.193Z,13.78
2023-04-09T14:07:49.684Z,14.05
2023-04-09T14:10:18.142Z,13.94
2023-04-09T14:12:46.573Z,13.75
2023-04-09T14:15:15.747Z,13.70
2023-04-09T14:17:45.385Z,13.46
2023-04-09T14:20:14.164Z,13.53
2023-04-09T14:22:49.070Z,13.63
2023-04-09T14:25:17.675Z,13.48
2023-04-09T14:27:46.352Z,13.63
2023-04-09T14:30:15.106Z,13.57
2023-04-09T14:32:43.551Z,13.56
2023-04-09T14:35:11.909Z,13.51
2023-04-09T14:37:41.034Z,13.42
2023-04-09T14:40:11.795Z,13.60
2023-04-09T14:42:40.802Z,13.58
2023-04-09T14:45:10.391Z,13.75
2023-04-09T14:47:38.860Z,13.66
2023-04-09T14:50:08.299Z,13.72
2023-04-09T14:52:38.193Z,14.09
2023-04-09T14:55:12.180Z,14.36
2023-04-09T14:57:42.737Z,14.60
2023-04-09T15:00:13.804Z,14.68
2023-04-09T15:02:42.554Z,14.90
2023-04-09T15:05:12.132Z,14.86
2023-04-09T15:07:40.637Z,14.93
2023-04-09T15:10:10.592Z,15.04
2023-04-09T15:12:41.865Z,14.82
2023-04-09T15:15:11.223Z,15.11
2023-04-09T15:17:39.617Z,15.03
2023-04-09T15:20:09.400Z,15.21
2023-04-09T15:22:37.727Z,14.94
2023-04-09T15:25:07.314Z,15.03
2023-04-09T15:27:35.985Z,14.73
2023-04-09T15:30:07.654Z,14.64
2023-04-09T15:32:36.250Z,14.39
2023-04-09T15:35:05.006Z,14.25
2023-04-09T15:37:33.638Z,13.82
2023-04-09T15:40:02.078Z,13.90
2023-04-09T15:42:30.473Z,14.05
2023-04-09T15:44:58.874Z,13.97
2023-04-09T15:47:29.268Z,13.85
2023-04-09T15:49:59.729Z,13.90
2023-04-09T15:52:28.186Z,13.87
2023-04-09T15:54:56.527Z,13.83
2023-04-09T15:57:24.929Z,13.88
2023-04-09T15:59:54.046Z,13.95
2023-04-09T16:02:24.102Z,13.83
2023-04-09T16:04:55.658Z,13.85
2023-04-09T16:07:24.060Z,13.90
2023-04-09T16:09:52.387Z,13.95
2023-04-09T16:12:20.785Z,14.06
2023-04-09T16:14:49.268Z,14.15
2023-04-09T16:17:17.849Z,14.30
2023-04-09T16:19:46.444Z,14.36
2023-04-09T16:22:16.703Z,14.47
2023-04-09T16:24:45.275Z,14.57
2023-04-09T16:27:14.535Z,14.69
2023-04-09T16:29:42.978Z,14.65
2023-04-09T16:32:11.472Z,14.62
2023-04-09T16:34:39.822Z,14.51
2023-04-09T16:37:08.579Z,14.40
2023-04-09T16:39:38.318Z,14.36
2023-04-09T16:42:07.138Z,14.32
2023-04-09T16:44:35.773Z,14.21
2023-04-09T16:47:04.120Z,14.14
2023-04-09T16:49:32.604Z,14.10
2023-04-09T16:52:00.983Z,14.01
2023-04-09T16:54:29.314Z,13.84
2023-04-09T16:56:59.147Z,13.79
2023-04-09T16:59:27.510Z,13.71
2023-04-09T17:01:56.188Z,13.63
2023-04-09T17:04:24.619Z,13.62
2023-04-09T17:06:53.091Z,13.63
2023-04-09T17:09:21.432Z,13.61
2023-04-09T17:11:52.925Z,13.58
2023-04-09T17:14:22.866Z,13.49
2023-04-09T17:16:52.987Z,13.45
2023-04-09T17:19:21.708Z,13.42
2023-04-09T17:21:50.057Z,13.36
2023-04-09T17:24:18.698Z,13.29
2023-04-09T17:26:47.071Z,13.30
2023-04-09T17:29:16.685Z,13.27
2023-04-09T17:31:46.474Z,13.26
2023-04-09T17:34:16.394Z,13.25
2023-04-09T17:36:47.053Z,13.20
2023-04-09T17:39:15.505Z,13.21
2023-04-09T17:41:43.887Z,13.19
2023-04-09T17:44:12.279Z,13.15
2023-04-09T17:46:40.641Z,13.09
2023-04-09T17:49:10.686Z,13.09
2023-04-09T17:51:39.371Z,13.06
2023-04-09T17:54:07.814Z,12.98
2023-04-09T17:56:39.025Z,12.96
2023-04-09T17:59:07.738Z,12.93
2023-04-09T18:01:36.299Z,12.92
2023-04-09T18:04:05.184Z,12.85
2023-04-09T18:06:35.137Z,12.78
2023-04-09T18:09:03.518Z,12.71
2023-04-09T18:11:31.990Z,12.74
2023-04-09T18:14:00.560Z,12.67
2023-04-09T18:16:29.074Z,12.56
2023-04-09T18:18:57.548Z,12.54
2023-04-09T18:21:27.059Z,12.49
2023-04-09T18:23:56.893Z,12.48
2023-04-09T18:26:25.563Z,12.57
2023-04-09T18:28:54.263Z,12.52
2023-04-09T18:31:23.183Z,12.59
2023-04-09T18:33:52.412Z,12.50
2023-04-09T18:36:20.727Z,12.36
2023-04-09T18:38:49.130Z,12.50
2023-04-09T18:41:24.779Z,12.35
2023-04-09T18:43:53.402Z,12.43
2023-04-09T18:46:22.894Z,12.36
2023-04-09T18:48:51.752Z,12.31
2023-04-09T18:51:20.986Z,12.20
2023-04-09T18:53:52.920Z,12.17
2023-04-09T18:56:22.979Z,12.13
2023-04-09T18:58:52.455Z,12.05
2023-04-09T19:01:21.213Z,12.04
2023-04-09T19:03:49.925Z,12.01
2023-04-09T19:06:19.643Z,11.99
2023-04-09T19:08:50.081Z,11.98
2023-04-09T19:11:18.424Z,11.97
2023-04-09T19:13:48.165Z,11.90
2023-04-09T19:16:17.076Z,11.86
2023-04-09T19:18:45.770Z,11.79
2023-04-09T19:21:14.208Z,11.71
2023-04-09T19:23:43.100Z,11.71
2023-04-09T19:26:12.120Z,11.59
2023-04-09T19:28:40.528Z,11.60
2023-04-09T19:31:12.693Z,11.50
2023-04-09T19:33:41.179Z,11.46
2023-04-09T19:36:09.555Z,11.46
2023-04-09T19:38:37.990Z,11.31
2023-04-09T19:41:06.826Z,11.26
2023-04-09T19:43:36.850Z,11.23
2023-04-09T19:46:08.444Z,11.05
2023-04-09T19:48:40.606Z,11.24
2023-04-09T19:51:09.013Z,11.25
2023-04-09T19:53:37.856Z,11.27
2023-04-09T19:56:07.213Z,11.23
2023-04-09T19:58:35.916Z,11.09
2023-04-09T20:01:04.293Z,11.16
2023-04-09T20:03:33.512Z,11.10
2023-04-09T20:06:08.562Z,11.02
2023-04-09T20:08:37.865Z,10.98
2023-04-09T20:11:07.949Z,10.99
2023-04-09T20:13:36.257Z,10.93
2023-04-09T20:16:05.521Z,10.92
2023-04-09T20:18:33.997Z,10.83
2023-04-09T20:21:03.737Z,10.84
2023-04-09T20:23:32.072Z,10.69
2023-04-09T20:26:00.886Z,10.67
2023-04-09T20:28:29.715Z,10.60
2023-04-09T20:30:58.131Z,10.66
2023-04-09T20:33:26.567Z,10.58
2023-04-09T20:35:55.055Z,10.49
2023-04-09T20:38:25.227Z,10.47
2023-04-09T20:40:53.689Z,10.31
2023-04-09T20:43:22.319Z,10.24
2023-04-09T20:45:50.671Z,10.38
2023-04-09T20:48:19.828Z,10.32
2023-04-09T20:50:48.160Z,10.29
2023-04-09T20:53:17.931Z,10.13
2023-04-09T20:55:47.674Z,9.93
2023-04-09T20:58:15.996Z,9.94
2023-04-09T21:00:44.324Z,10.00
2023-04-09T21:03:12.883Z,10.08
2023-04-09T21:05:41.399Z,10.04
2023-04-09T21:08:14.637Z,10.01
2023-04-09T21:10:43.102Z,9.91
2023-04-09T21:13:12.826Z,9.09
2023-04-09T21:15:41.207Z,9.84
2023-04-09T21:18:09.582Z,9.81
2023-04-09T21:20:37.991Z,9.77
2023-04-09T21:23:06.346Z,9.70
2023-04-09T21:25:34.834Z,9.73
2023-04-09T21:28:03.370Z,9.65
2023-04-09T21:30:33.661Z,9.63
2023-04-09T21:33:04.180Z,9.53
2023-04-09T21:35:32.770Z,9.40
2023-04-09T21:38:02.892Z,9.35
2023-04-09T21:40:31.786Z,9.40
2023-04-09T21:43:00.151Z,9.32
2023-04-09T21:45:28.472Z,9.28
2023-04-09T21:47:58.155Z,9.34
2023-04-09T21:50:26.553Z,9.20
2023-04-09T21:52:54.813Z,9.22
2023-04-09T21:55:23.363Z,9.13
2023-04-09T21:57:53.580Z,9.14
2023-04-09T22:00:21.970Z,9.03
2023-04-09T22:02:50.944Z,8.93
2023-04-09T22:05:20.801Z,9.05
2023-04-09T22:07:49.184Z,8.99
2023-04-09T22:10:17.575Z,8.86
2023-04-09T22:12:46.142Z,8.89
2023-04-09T22:15:14.597Z,8.65
2023-04-09T22:17:42.990Z,8.79
2023-04-09T22:20:11.918Z,8.86
2023-04-09T22:22:42.503Z,8.70
2023-04-09T22:25:12.346Z,8.73
2023-04-09T22:27:40.739Z,8.42
2023-04-09T22:30:10.332Z,8.59
2023-04-09T22:32:38.769Z,8.63
2023-04-09T22:35:07.898Z,8.60
2023-04-09T22:37:36.277Z,8.31
2023-04-09T22:40:14.044Z,8.37
2023-04-09T22:42:43.250Z,8.29
2023-04-09T22:45:12.248Z,8.29
2023-04-09T22:47:40.845Z,8.29
2023-04-09T22:50:11.215Z,8.17
2023-04-09T22:52:39.554Z,8.20
2023-04-09T22:55:11.059Z,8.21
2023-04-09T22:57:42.704Z,8.09
2023-04-09T23:00:11.844Z,7.83
2023-04-09T23:02:40.826Z,8.08
2023-04-09T23:05:11.138Z,8.03
2023-04-09T23:07:39.569Z,8.00
2023-04-09T23:10:14.182Z,7.87
2023-04-09T23:12:42.739Z,7.87
2023-04-09T23:15:12.446Z,7.71
2023-04-09T23:17:41.615Z,7.77
2023-04-09T23:20:14.773Z,7.73
2023-04-09T23:22:43.400Z,7.73
2023-04-09T23:25:14.114Z,7.68
2023-04-09T23:27:42.658Z,7.59
2023-04-09T23:30:16.625Z,7.35
2023-04-09T23:32:45.936Z,7.50
2023-04-09T23:35:14.405Z,7.46
2023-04-09T23:37:43.739Z,7.47
2023-04-09T23:40:15.205Z,7.40
2023-04-09T23:42:43.625Z,7.37
2023-04-09T23:45:13.010Z,7.31
2023-04-09T23:47:42.341Z,7.25
2023-04-09T23:50:11.730Z,6.71
2023-04-09T23:52:40.223Z,7.14
2023-04-09T23:55:09.787Z,7.18
2023-04-09T23:57:39.970Z,7.16
